sensor_id;sensor_type;location;lat;lon;timestamp;pressure;altitude;pressure_sealevel;temperature;humidity
36980;BME280;22891;50.562;7.272;2023-03-03T00:01:31;100880.00;;;-0.42;nan
36980;BME280;22891;50.562;7.272;2023-03-03T00:03:58;100879.00;;;-0.52;nan
36980;BME280;22891;50.562;7.272;2023-03-03T00:06:25;100879.00;;;-0.55;nan
36980;BME280;22891;50.562;7.272;2023-03-03T00:08:51;100880.00;;;-0.45;nan
36980;BME280;22891;50.562;7.272;2023-03-03T00:11:17;100885.00;;;-0.51;nan
36980;BME280;22891;50.562;7.272;2023-03-03T00:13:49;100892.00;;;-0.43;nan
36980;BME280;22891;50.562;7.272;2023-03-03T00:16:31;100899.00;;;-0.29;nan
36980;BME280;22891;50.562;7.272;2023-03-03T00:19:00;100905.00;;;-0.58;nan
36980;BME280;22891;50.562;7.272;2023-03-03T00:21:32;100903.00;;;-0.81;nan
36980;BME280;22891;50.562;7.272;2023-03-03T00:26:59;100880.00;;;-0.67;nan
36980;BME280;22891;50.562;7.272;2023-03-03T00:29:40;100886.00;;;-0.82;nan
36980;BME280;22891;50.562;7.272;2023-03-03T00:32:20;100885.00;;;-0.92;nan
36980;BME280;22891;50.562;7.272;2023-03-03T00:34:47;100888.00;;;-0.84;nan
36980;BME280;22891;50.562;7.272;2023-03-03T00:37:27;100895.00;;;-0.58;nan
36980;BME280;22891;50.562;7.272;2023-03-03T00:45:56;100888.00;;;-0.65;nan
36980;BME280;22891;50.562;7.272;2023-03-03T00:48:55;100891.00;;;-0.68;nan
36980;BME280;22891;50.562;7.272;2023-03-03T00:51:30;100883.00;;;-0.76;nan
36980;BME280;22891;50.562;7.272;2023-03-03T00:53:59;100880.00;;;-0.82;nan
36980;BME280;22891;50.562;7.272;2023-03-03T00:56:26;100882.00;;;-0.95;nan
36980;BME280;22891;50.562;7.272;2023-03-03T00:58:52;100877.00;;;-0.95;nan
36980;BME280;22891;50.562;7.272;2023-03-03T01:01:19;100881.00;;;-0.91;nan
36980;BME280;22891;50.562;7.272;2023-03-03T01:03:44;100870.00;;;-0.85;nan
36980;BME280;22891;50.562;7.272;2023-03-03T01:06:11;100845.00;;;-1.03;nan
36980;BME280;22891;50.562;7.272;2023-03-03T01:08:37;100755.00;;;-0.89;nan
36980;BME280;22891;50.562;7.272;2023-03-03T01:11:14;100849.00;;;-0.79;nan
36980;BME280;22891;50.562;7.272;2023-03-03T01:13:43;100854.00;;;-0.79;nan
36980;BME280;22891;50.562;7.272;2023-03-03T01:16:10;100858.00;;;-0.80;nan
36980;BME280;22891;50.562;7.272;2023-03-03T01:18:36;100818.00;;;-0.85;nan
36980;BME280;22891;50.562;7.272;2023-03-03T01:21:03;100809.00;;;-1.06;nan
36980;BME280;22891;50.562;7.272;2023-03-03T01:23:30;100826.00;;;-1.54;nan
36980;BME280;22891;50.562;7.272;2023-03-03T01:25:56;100809.00;;;-1.52;nan
36980;BME280;22891;50.562;7.272;2023-03-03T01:28:22;100825.00;;;-1.61;nan
36980;BME280;22891;50.562;7.272;2023-03-03T01:30:48;100800.00;;;-1.67;nan
36980;BME280;22891;50.562;7.272;2023-03-03T01:33:13;100790.00;;;-1.47;nan
36980;BME280;22891;50.562;7.272;2023-03-03T01:35:43;100800.00;;;-1.36;nan
36980;BME280;22891;50.562;7.272;2023-03-03T01:38:10;100781.00;;;-1.51;nan
36980;BME280;22891;50.562;7.272;2023-03-03T01:40:36;100779.00;;;-1.42;nan
36980;BME280;22891;50.562;7.272;2023-03-03T01:43:02;100790.00;;;-1.33;nan
36980;BME280;22891;50.562;7.272;2023-03-03T01:45:31;100795.00;;;-1.46;nan
36980;BME280;22891;50.562;7.272;2023-03-03T01:48:15;100784.00;;;-1.43;nan
36980;BME280;22891;50.562;7.272;2023-03-03T01:51:01;100774.00;;;-1.46;nan
36980;BME280;22891;50.562;7.272;2023-03-03T01:53:50;100780.00;;;-1.57;nan
36980;BME280;22891;50.562;7.272;2023-03-03T01:56:18;100765.00;;;-1.54;nan
36980;BME280;22891;50.562;7.272;2023-03-03T01:58:46;100777.00;;;-1.57;nan
36980;BME280;22891;50.562;7.272;2023-03-03T02:01:32;100780.00;;;-1.54;nan
36980;BME280;22891;50.562;7.272;2023-03-03T02:03:59;100779.00;;;-1.64;nan
36980;BME280;22891;50.562;7.272;2023-03-03T02:06:32;100793.00;;;-1.59;nan
36980;BME280;22891;50.562;7.272;2023-03-03T02:09:21;100787.00;;;-1.41;nan
36980;BME280;22891;50.562;7.272;2023-03-03T02:11:54;100785.00;;;-1.64;nan
36980;BME280;22891;50.562;7.272;2023-03-03T02:14:24;100784.00;;;-1.58;nan
36980;BME280;22891;50.562;7.272;2023-03-03T02:16:51;100789.00;;;-1.52;nan
36980;BME280;22891;50.562;7.272;2023-03-03T02:19:27;100787.00;;;-1.44;nan
36980;BME280;22891;50.562;7.272;2023-03-03T02:21:58;100785.00;;;-1.39;nan
36980;BME280;22891;50.562;7.272;2023-03-03T02:24:42;100805.00;;;-1.24;nan
36980;BME280;22891;50.562;7.272;2023-03-03T02:27:10;100812.00;;;-1.32;nan
36980;BME280;22891;50.562;7.272;2023-03-03T02:29:36;100804.00;;;-1.37;nan
36980;BME280;22891;50.562;7.272;2023-03-03T02:32:02;100808.00;;;-1.40;nan
36980;BME280;22891;50.562;7.272;2023-03-03T02:34:28;100802.00;;;-1.48;nan
36980;BME280;22891;50.562;7.272;2023-03-03T02:36:53;100796.00;;;-1.37;nan
36980;BME280;22891;50.562;7.272;2023-03-03T02:39:23;100799.00;;;-1.49;nan
36980;BME280;22891;50.562;7.272;2023-03-03T02:42:33;100811.00;;;-1.57;nan
36980;BME280;22891;50.562;7.272;2023-03-03T02:44:59;100807.00;;;-1.51;nan
36980;BME280;22891;50.562;7.272;2023-03-03T02:47:25;100821.00;;;-1.57;nan
36980;BME280;22891;50.562;7.272;2023-03-03T02:49:51;100812.00;;;-1.60;nan
36980;BME280;22891;50.562;7.272;2023-03-03T02:52:17;100813.00;;;-1.56;nan
36980;BME280;22891;50.562;7.272;2023-03-03T02:54:43;100825.00;;;-1.49;nan
36980;BME280;22891;50.562;7.272;2023-03-03T02:57:10;100824.00;;;-1.56;nan
36980;BME280;22891;50.562;7.272;2023-03-03T02:59:35;100813.00;;;-1.75;nan
36980;BME280;22891;50.562;7.272;2023-03-03T03:02:02;100809.00;;;-1.83;nan
36980;BME280;22891;50.562;7.272;2023-03-03T03:04:28;100813.00;;;-1.77;nan
36980;BME280;22891;50.562;7.272;2023-03-03T03:06:55;100817.00;;;-1.82;nan
36980;BME280;22891;50.562;7.272;2023-03-03T03:09:22;100799.00;;;-1.89;nan
36980;BME280;22891;50.562;7.272;2023-03-03T03:11:49;100802.00;;;-1.54;nan
36980;BME280;22891;50.562;7.272;2023-03-03T03:14:15;100805.00;;;-1.58;nan
36980;BME280;22891;50.562;7.272;2023-03-03T03:16:41;100797.00;;;-1.63;nan
36980;BME280;22891;50.562;7.272;2023-03-03T03:19:08;100783.00;;;-1.55;nan
36980;BME280;22891;50.562;7.272;2023-03-03T03:21:35;100773.00;;;-1.55;nan
36980;BME280;22891;50.562;7.272;2023-03-03T03:24:01;100767.00;;;-1.62;nan
36980;BME280;22891;50.562;7.272;2023-03-03T03:26:27;100759.00;;;-1.47;nan
36980;BME280;22891;50.562;7.272;2023-03-03T03:28:53;100768.00;;;-1.46;nan
36980;BME280;22891;50.562;7.272;2023-03-03T03:31:20;100770.00;;;-1.36;nan
36980;BME280;22891;50.562;7.272;2023-03-03T03:33:47;100768.00;;;-1.31;nan
36980;BME280;22891;50.562;7.272;2023-03-03T03:36:13;100760.00;;;-1.38;nan
36980;BME280;22891;50.562;7.272;2023-03-03T03:38:39;100747.00;;;-1.31;nan
36980;BME280;22891;50.562;7.272;2023-03-03T03:41:05;100753.00;;;-1.31;nan
36980;BME280;22891;50.562;7.272;2023-03-03T03:43:32;100741.00;;;-1.30;nan
36980;BME280;22891;50.562;7.272;2023-03-03T03:45:58;100739.00;;;-0.99;nan
36980;BME280;22891;50.562;7.272;2023-03-03T03:48:24;100749.00;;;-1.08;nan
36980;BME280;22891;50.562;7.272;2023-03-03T03:50:51;100753.00;;;-0.94;nan
36980;BME280;22891;50.562;7.272;2023-03-03T03:53:17;100754.00;;;-1.08;nan
36980;BME280;22891;50.562;7.272;2023-03-03T03:55:44;100751.00;;;-0.98;nan
36980;BME280;22891;50.562;7.272;2023-03-03T03:58:15;100754.00;;;-0.93;nan
36980;BME280;22891;50.562;7.272;2023-03-03T04:00:43;100736.00;;;-0.85;nan
36980;BME280;22891;50.562;7.272;2023-03-03T04:03:09;100737.00;;;-0.72;nan
36980;BME280;22891;50.562;7.272;2023-03-03T04:05:36;100727.00;;;-0.69;nan
36980;BME280;22891;50.562;7.272;2023-03-03T04:08:02;100727.00;;;-0.63;nan
36980;BME280;22891;50.562;7.272;2023-03-03T04:10:29;100721.00;;;-0.51;nan
36980;BME280;22891;50.562;7.272;2023-03-03T04:12:55;100701.00;;;-0.44;nan
36980;BME280;22891;50.562;7.272;2023-03-03T04:15:21;100706.00;;;-0.57;nan
36980;BME280;22891;50.562;7.272;2023-03-03T04:17:47;100690.00;;;-0.49;nan
36980;BME280;22891;50.562;7.272;2023-03-03T04:20:14;100689.00;;;-0.41;nan
36980;BME280;22891;50.562;7.272;2023-03-03T04:22:40;100683.00;;;-0.30;nan
36980;BME280;22891;50.562;7.272;2023-03-03T04:25:07;100689.00;;;-0.30;nan
36980;BME280;22891;50.562;7.272;2023-03-03T04:27:34;100679.00;;;-0.27;nan
36980;BME280;22891;50.562;7.272;2023-03-03T04:30:01;100666.00;;;-0.25;nan
36980;BME280;22891;50.562;7.272;2023-03-03T04:32:27;100659.00;;;-0.26;nan
36980;BME280;22891;50.562;7.272;2023-03-03T04:34:56;100656.00;;;-0.37;nan
36980;BME280;22891;50.562;7.272;2023-03-03T04:37:22;100641.00;;;-0.37;nan
36980;BME280;22891;50.562;7.272;2023-03-03T04:39:48;100635.00;;;-0.19;nan
36980;BME280;22891;50.562;7.272;2023-03-03T04:42:14;100631.00;;;-0.22;nan
36980;BME280;22891;50.562;7.272;2023-03-03T04:44:40;100624.00;;;-0.13;nan
36980;BME280;22891;50.562;7.272;2023-03-03T04:47:06;100623.00;;;-0.17;nan
36980;BME280;22891;50.562;7.272;2023-03-03T04:49:31;100625.00;;;-0.12;nan
36980;BME280;22891;50.562;7.272;2023-03-03T04:51:58;100610.00;;;-0.22;nan
36980;BME280;22891;50.562;7.272;2023-03-03T04:54:23;100603.00;;;-0.32;nan
36980;BME280;22891;50.562;7.272;2023-03-03T04:56:50;100606.00;;;-0.49;nan
36980;BME280;22891;50.562;7.272;2023-03-03T04:59:15;100603.00;;;-0.29;nan
36980;BME280;22891;50.562;7.272;2023-03-03T05:01:41;100601.00;;;-0.17;nan
36980;BME280;22891;50.562;7.272;2023-03-03T05:04:07;100588.00;;;-0.14;nan
36980;BME280;22891;50.562;7.272;2023-03-03T05:06:33;100588.00;;;-0.10;nan
36980;BME280;22891;50.562;7.272;2023-03-03T05:08:59;100589.00;;;-0.25;nan
36980;BME280;22891;50.562;7.272;2023-03-03T05:11:26;100594.00;;;-0.26;nan
36980;BME280;22891;50.562;7.272;2023-03-03T05:13:51;100588.00;;;-0.07;nan
36980;BME280;22891;50.562;7.272;2023-03-03T05:16:17;100594.00;;;0.09;nan
36980;BME280;22891;50.562;7.272;2023-03-03T05:18:44;100601.00;;;0.01;nan
36980;BME280;22891;50.562;7.272;2023-03-03T05:21:10;100596.00;;;-0.30;nan
36980;BME280;22891;50.562;7.272;2023-03-03T05:23:37;100600.00;;;-0.28;nan
36980;BME280;22891;50.562;7.272;2023-03-03T05:26:03;100596.00;;;-0.24;nan
36980;BME280;22891;50.562;7.272;2023-03-03T05:28:29;100598.00;;;-0.38;nan
36980;BME280;22891;50.562;7.272;2023-03-03T05:30:55;100600.00;;;-0.40;nan
36980;BME280;22891;50.562;7.272;2023-03-03T05:33:20;100583.00;;;-0.53;nan
36980;BME280;22891;50.562;7.272;2023-03-03T05:35:46;100584.00;;;-0.56;nan
36980;BME280;22891;50.562;7.272;2023-03-03T05:38:12;100567.00;;;-0.38;nan
36980;BME280;22891;50.562;7.272;2023-03-03T05:40:39;100562.00;;;-0.38;nan
36980;BME280;22891;50.562;7.272;2023-03-03T05:43:05;100570.00;;;-0.36;nan
36980;BME280;22891;50.562;7.272;2023-03-03T05:45:32;100588.00;;;-0.35;nan
36980;BME280;22891;50.562;7.272;2023-03-03T05:47:58;100586.00;;;-0.33;nan
36980;BME280;22891;50.562;7.272;2023-03-03T05:50:25;100580.00;;;-0.43;nan
36980;BME280;22891;50.562;7.272;2023-03-03T05:52:51;100582.00;;;-0.35;nan
36980;BME280;22891;50.562;7.272;2023-03-03T05:55:18;100571.00;;;-0.23;nan
36980;BME280;22891;50.562;7.272;2023-03-03T05:57:44;100588.00;;;-0.22;nan
36980;BME280;22891;50.562;7.272;2023-03-03T06:00:11;100597.00;;;-0.19;nan
36980;BME280;22891;50.562;7.272;2023-03-03T06:02:38;100595.00;;;-0.29;nan
36980;BME280;22891;50.562;7.272;2023-03-03T06:05:05;100603.00;;;-0.16;nan
36980;BME280;22891;50.562;7.272;2023-03-03T06:07:31;100604.00;;;-0.16;nan
36980;BME280;22891;50.562;7.272;2023-03-03T06:09:58;100602.00;;;-0.14;nan
36980;BME280;22891;50.562;7.272;2023-03-03T06:12:24;100606.00;;;-0.06;nan
36980;BME280;22891;50.562;7.272;2023-03-03T06:14:49;100608.00;;;-0.07;nan
36980;BME280;22891;50.562;7.272;2023-03-03T06:17:15;100607.00;;;-0.14;nan
36980;BME280;22891;50.562;7.272;2023-03-03T06:19:41;100604.00;;;-0.16;nan
36980;BME280;22891;50.562;7.272;2023-03-03T06:22:07;100610.00;;;-0.19;nan
36980;BME280;22891;50.562;7.272;2023-03-03T06:24:33;100603.00;;;-0.16;nan
36980;BME280;22891;50.562;7.272;2023-03-03T06:27:01;100609.00;;;-0.10;nan
36980;BME280;22891;50.562;7.272;2023-03-03T06:29:27;100594.00;;;-0.17;nan
36980;BME280;22891;50.562;7.272;2023-03-03T06:31:53;100613.00;;;-0.16;nan
36980;BME280;22891;50.562;7.272;2023-03-03T06:34:19;100610.00;;;-0.06;nan
36980;BME280;22891;50.562;7.272;2023-03-03T06:36:45;100618.00;;;-0.04;nan
36980;BME280;22891;50.562;7.272;2023-03-03T06:39:11;100627.00;;;0.07;nan
36980;BME280;22891;50.562;7.272;2023-03-03T06:41:37;100613.00;;;0.14;nan
36980;BME280;22891;50.562;7.272;2023-03-03T06:44:04;100629.00;;;0.08;nan
36980;BME280;22891;50.562;7.272;2023-03-03T06:46:30;100638.00;;;-0.02;nan
36980;BME280;22891;50.562;7.272;2023-03-03T06:48:56;100634.00;;;0.14;nan
36980;BME280;22891;50.562;7.272;2023-03-03T06:51:32;100641.00;;;0.12;nan
36980;BME280;22891;50.562;7.272;2023-03-03T06:54:05;100636.00;;;0.22;nan
36980;BME280;22891;50.562;7.272;2023-03-03T06:56:36;100654.00;;;0.20;nan
36980;BME280;22891;50.562;7.272;2023-03-03T06:59:08;100649.00;;;0.33;nan
36980;BME280;22891;50.562;7.272;2023-03-03T07:01:36;100656.00;;;0.18;nan
36980;BME280;22891;50.562;7.272;2023-03-03T07:07:34;100648.00;;;0.17;nan
36980;BME280;22891;50.562;7.272;2023-03-03T07:10:00;100673.00;;;0.13;nan
36980;BME280;22891;50.562;7.272;2023-03-03T07:12:34;100668.00;;;0.23;nan
36980;BME280;22891;50.562;7.272;2023-03-03T07:15:20;100660.00;;;0.36;nan
36980;BME280;22891;50.562;7.272;2023-03-03T07:17:49;100681.00;;;0.46;nan
36980;BME280;22891;50.562;7.272;2023-03-03T07:20:32;100692.00;;;0.37;nan
36980;BME280;22891;50.562;7.272;2023-03-03T07:23:01;100701.00;;;0.33;nan
36980;BME280;22891;50.562;7.272;2023-03-03T07:25:38;100703.00;;;0.38;nan
36980;BME280;22891;50.562;7.272;2023-03-03T07:28:24;100713.00;;;0.43;nan
36980;BME280;22891;50.562;7.272;2023-03-03T07:30:56;100712.00;;;0.37;nan
36980;BME280;22891;50.562;7.272;2023-03-03T07:33:37;100725.00;;;0.41;nan
36980;BME280;22891;50.562;7.272;2023-03-03T07:36:23;100722.00;;;0.36;nan
36980;BME280;22891;50.562;7.272;2023-03-03T07:38:57;100734.00;;;0.43;nan
36980;BME280;22891;50.562;7.272;2023-03-03T07:41:25;100727.00;;;0.43;nan
36980;BME280;22891;50.562;7.272;2023-03-03T07:44:16;100738.00;;;0.29;nan
36980;BME280;22891;50.562;7.272;2023-03-03T07:46:46;100740.00;;;0.39;nan
36980;BME280;22891;50.562;7.272;2023-03-03T07:52:50;100736.00;;;0.39;nan
36980;BME280;22891;50.562;7.272;2023-03-03T07:56:28;100752.00;;;0.59;nan
36980;BME280;22891;50.562;7.272;2023-03-03T07:58:55;100770.00;;;0.56;nan
36980;BME280;22891;50.562;7.272;2023-03-03T08:07:18;100789.00;;;0.77;nan
36980;BME280;22891;50.562;7.272;2023-03-03T08:10:07;100792.00;;;0.44;nan
36980;BME280;22891;50.562;7.272;2023-03-03T08:12:53;100799.00;;;0.42;nan
36980;BME280;22891;50.562;7.272;2023-03-03T08:15:28;100803.00;;;0.54;nan
36980;BME280;22891;50.562;7.272;2023-03-03T08:17:55;100806.00;;;0.59;nan
36980;BME280;22891;50.562;7.272;2023-03-03T08:20:44;100811.00;;;0.65;nan
36980;BME280;22891;50.562;7.272;2023-03-03T08:23:12;100847.00;;;0.65;nan
36980;BME280;22891;50.562;7.272;2023-03-03T08:25:39;100834.00;;;0.76;nan
36980;BME280;22891;50.562;7.272;2023-03-03T08:28:08;100838.00;;;0.81;nan
36980;BME280;22891;50.562;7.272;2023-03-03T08:30:34;100859.00;;;0.95;nan
36980;BME280;22891;50.562;7.272;2023-03-03T08:33:00;100874.00;;;1.10;nan
36980;BME280;22891;50.562;7.272;2023-03-03T08:35:26;100877.00;;;1.11;nan
36980;BME280;22891;50.562;7.272;2023-03-03T08:37:52;100884.00;;;0.84;nan
36980;BME280;22891;50.562;7.272;2023-03-03T08:40:18;100889.00;;;0.96;nan
36980;BME280;22891;50.562;7.272;2023-03-03T08:42:45;100896.00;;;0.97;nan
36980;BME280;22891;50.562;7.272;2023-03-03T08:45:10;100897.00;;;0.85;nan
36980;BME280;22891;50.562;7.272;2023-03-03T08:47:37;100890.00;;;0.78;nan
36980;BME280;22891;50.562;7.272;2023-03-03T08:50:04;100887.00;;;0.83;nan
36980;BME280;22891;50.562;7.272;2023-03-03T08:52:31;100892.00;;;0.73;nan
36980;BME280;22891;50.562;7.272;2023-03-03T08:54:57;100888.00;;;0.83;nan
36980;BME280;22891;50.562;7.272;2023-03-03T08:57:23;100894.00;;;0.81;nan
36980;BME280;22891;50.562;7.272;2023-03-03T08:59:49;100899.00;;;0.86;nan
36980;BME280;22891;50.562;7.272;2023-03-03T09:02:15;100902.00;;;0.84;nan
36980;BME280;22891;50.562;7.272;2023-03-03T09:04:42;100912.00;;;1.01;nan
36980;BME280;22891;50.562;7.272;2023-03-03T09:07:08;100906.00;;;0.78;nan
36980;BME280;22891;50.562;7.272;2023-03-03T09:09:34;100900.00;;;0.87;nan
36980;BME280;22891;50.562;7.272;2023-03-03T09:12:47;100916.00;;;0.84;nan
36980;BME280;22891;50.562;7.272;2023-03-03T09:15:26;100925.00;;;0.65;nan
36980;BME280;22891;50.562;7.272;2023-03-03T09:17:57;100918.00;;;0.85;nan
36980;BME280;22891;50.562;7.272;2023-03-03T09:20:53;100919.00;;;0.79;nan
36980;BME280;22891;50.562;7.272;2023-03-03T09:23:38;100930.00;;;0.80;nan
36980;BME280;22891;50.562;7.272;2023-03-03T09:29:51;100960.00;;;0.70;nan
36980;BME280;22891;50.562;7.272;2023-03-03T09:32:30;100926.00;;;0.87;nan
36980;BME280;22891;50.562;7.272;2023-03-03T09:34:59;100937.00;;;1.17;nan
36980;BME280;22891;50.562;7.272;2023-03-03T09:37:34;100943.00;;;1.29;nan
36980;BME280;22891;50.562;7.272;2023-03-03T09:40:30;100950.00;;;1.11;nan
36980;BME280;22891;50.562;7.272;2023-03-03T09:43:14;100955.00;;;1.33;nan
36980;BME280;22891;50.562;7.272;2023-03-03T09:46:02;100966.00;;;1.45;nan
36980;BME280;22891;50.562;7.272;2023-03-03T09:49:08;100979.00;;;1.32;nan
36980;BME280;22891;50.562;7.272;2023-03-03T09:54:36;100994.00;;;1.25;nan
36980;BME280;22891;50.562;7.272;2023-03-03T09:57:20;100965.00;;;1.01;nan
36980;BME280;22891;50.562;7.272;2023-03-03T10:01:07;100964.00;;;0.92;nan
36980;BME280;22891;50.562;7.272;2023-03-03T10:04:15;101008.00;;;0.96;nan
36980;BME280;22891;50.562;7.272;2023-03-03T10:07:18;101002.00;;;1.11;nan
36980;BME280;22891;50.562;7.272;2023-03-03T10:11:43;101034.00;;;1.18;nan
36980;BME280;22891;50.562;7.272;2023-03-03T10:21:23;101004.00;;;1.25;nan
36980;BME280;22891;50.562;7.272;2023-03-03T10:24:53;101007.00;;;1.20;nan
36980;BME280;22891;50.562;7.272;2023-03-03T10:40:45;101028.00;;;1.19;nan
36980;BME280;22891;50.562;7.272;2023-03-03T10:54:56;101058.00;;;1.32;nan
36980;BME280;22891;50.562;7.272;2023-03-03T10:59:23;101040.00;;;1.28;nan
36980;BME280;22891;50.562;7.272;2023-03-03T11:02:20;101085.00;;;1.23;nan
36980;BME280;22891;50.562;7.272;2023-03-03T11:07:57;101073.00;;;1.41;nan
36980;BME280;22891;50.562;7.272;2023-03-03T11:24:56;101086.00;;;1.34;nan
36980;BME280;22891;50.562;7.272;2023-03-03T11:30:47;101121.00;;;1.70;nan
36980;BME280;22891;50.562;7.272;2023-03-03T11:33:33;101155.00;;;1.93;nan
36980;BME280;22891;50.562;7.272;2023-03-03T11:36:22;101132.00;;;1.92;nan
36980;BME280;22891;50.562;7.272;2023-03-03T11:39:09;101139.00;;;1.91;nan
36980;BME280;22891;50.562;7.272;2023-03-03T11:43:16;101133.00;;;1.95;nan
36980;BME280;22891;50.562;7.272;2023-03-03T11:45:47;101139.00;;;1.99;nan
36980;BME280;22891;50.562;7.272;2023-03-03T11:48:42;101137.00;;;2.17;nan
36980;BME280;22891;50.562;7.272;2023-03-03T11:51:36;101172.00;;;2.34;nan
36980;BME280;22891;50.562;7.272;2023-03-03T11:54:08;101212.00;;;2.15;nan
36980;BME280;22891;50.562;7.272;2023-03-03T11:56:41;101194.00;;;2.29;nan
36980;BME280;22891;50.562;7.272;2023-03-03T12:04:07;101233.00;;;1.90;nan
36980;BME280;22891;50.562;7.272;2023-03-03T12:13:34;101220.00;;;1.98;nan
36980;BME280;22891;50.562;7.272;2023-03-03T12:16:17;101221.00;;;2.29;nan
36980;BME280;22891;50.562;7.272;2023-03-03T12:20:14;101212.00;;;2.27;nan
36980;BME280;22891;50.562;7.272;2023-03-03T12:23:25;101226.00;;;2.70;nan
36980;BME280;22891;50.562;7.272;2023-03-03T12:26:10;101266.00;;;2.58;nan
36980;BME280;22891;50.562;7.272;2023-03-03T12:28:41;101206.00;;;2.77;nan
36980;BME280;22891;50.562;7.272;2023-03-03T12:31:32;101219.00;;;2.53;nan
36980;BME280;22891;50.562;7.272;2023-03-03T12:35:30;101250.00;;;2.50;nan
36980;BME280;22891;50.562;7.272;2023-03-03T12:58:12;101255.00;;;3.09;nan
36980;BME280;22891;50.562;7.272;2023-03-03T13:06:51;101345.00;;;3.13;nan
36980;BME280;22891;50.562;7.272;2023-03-03T13:11:19;101268.00;;;3.01;nan
36980;BME280;22891;50.562;7.272;2023-03-03T13:15:47;101284.00;;;3.31;nan
36980;BME280;22891;50.562;7.272;2023-03-03T13:18:47;101401.00;;;3.77;nan
36980;BME280;22891;50.562;7.272;2023-03-03T13:21:33;101437.00;;;3.37;nan
36980;BME280;22891;50.562;7.272;2023-03-03T13:26:02;101425.00;;;3.83;nan
36980;BME280;22891;50.562;7.272;2023-03-03T13:31:38;101512.00;;;4.24;nan
36980;BME280;22891;50.562;7.272;2023-03-03T13:34:21;101500.00;;;4.21;nan
36980;BME280;22891;50.562;7.272;2023-03-03T13:37:06;101500.00;;;4.05;nan
36980;BME280;22891;50.562;7.272;2023-03-03T13:39:55;101514.00;;;4.03;nan
36980;BME280;22891;50.562;7.272;2023-03-03T13:42:28;101531.00;;;4.38;nan
36980;BME280;22891;50.562;7.272;2023-03-03T13:44:59;101547.00;;;4.30;nan
36980;BME280;22891;50.562;7.272;2023-03-03T13:47:41;101550.00;;;4.35;nan
36980;BME280;22891;50.562;7.272;2023-03-03T14:06:13;101517.00;;;4.73;nan
36980;BME280;22891;50.562;7.272;2023-03-03T14:17:03;101563.00;;;4.49;nan
36980;BME280;22891;50.562;7.272;2023-03-03T14:19:39;101580.00;;;4.95;nan
36980;BME280;22891;50.562;7.272;2023-03-03T14:22:53;101575.00;;;4.75;nan
36980;BME280;22891;50.562;7.272;2023-03-03T14:25:20;101532.00;;;4.37;nan
36980;BME280;22891;50.562;7.272;2023-03-03T14:28:09;101524.00;;;4.39;nan
36980;BME280;22891;50.562;7.272;2023-03-03T14:30:41;101517.00;;;4.53;nan
36980;BME280;22891;50.562;7.272;2023-03-03T14:33:20;101556.00;;;4.79;nan
36980;BME280;22891;50.562;7.272;2023-03-03T14:36:04;101561.00;;;4.82;nan
36980;BME280;22891;50.562;7.272;2023-03-03T14:38:40;101570.00;;;4.78;nan
36980;BME280;22891;50.562;7.272;2023-03-03T14:41:17;101570.00;;;4.78;nan
36980;BME280;22891;50.562;7.272;2023-03-03T14:44:03;101532.00;;;5.18;nan
36980;BME280;22891;50.562;7.272;2023-03-03T14:47:04;101580.00;;;5.62;nan
36980;BME280;22891;50.562;7.272;2023-03-03T14:49:44;101585.00;;;5.54;nan
36980;BME280;22891;50.562;7.272;2023-03-03T14:52:24;101595.00;;;5.30;nan
36980;BME280;22891;50.562;7.272;2023-03-03T14:54:53;101582.00;;;5.54;nan
36980;BME280;22891;50.562;7.272;2023-03-03T14:57:40;101587.00;;;5.50;nan
36980;BME280;22891;50.562;7.272;2023-03-03T15:00:33;101543.00;;;5.31;nan
36980;BME280;22891;50.562;7.272;2023-03-03T15:03:22;101576.00;;;5.35;nan
36980;BME280;22891;50.562;7.272;2023-03-03T15:05:54;101568.00;;;5.05;nan
36980;BME280;22891;50.562;7.272;2023-03-03T15:08:35;101572.00;;;5.15;nan
36980;BME280;22891;50.562;7.272;2023-03-03T15:12:23;101546.00;;;4.92;nan
36980;BME280;22891;50.562;7.272;2023-03-03T15:14:51;101566.00;;;5.00;nan
36980;BME280;22891;50.562;7.272;2023-03-03T15:17:27;101562.00;;;5.26;nan
36980;BME280;22891;50.562;7.272;2023-03-03T15:25:33;101584.00;;;5.29;nan
36980;BME280;22891;50.562;7.272;2023-03-03T15:33:18;101553.00;;;4.99;nan
36980;BME280;22891;50.562;7.272;2023-03-03T15:36:00;101525.00;;;4.76;nan
36980;BME280;22891;50.562;7.272;2023-03-03T15:39:15;101524.00;;;4.73;nan
36980;BME280;22891;50.562;7.272;2023-03-03T15:50:54;101511.00;;;4.18;nan
36980;BME280;22891;50.562;7.272;2023-03-03T15:55:22;101493.00;;;4.17;nan
36980;BME280;22891;50.562;7.272;2023-03-03T16:01:22;101478.00;;;3.78;nan
36980;BME280;22891;50.562;7.272;2023-03-03T16:03:57;101444.00;;;3.59;nan
36980;BME280;22891;50.562;7.272;2023-03-03T16:15:26;101443.00;;;3.47;nan
36980;BME280;22891;50.562;7.272;2023-03-03T16:18:17;101408.00;;;3.29;nan
36980;BME280;22891;50.562;7.272;2023-03-03T16:29:19;101428.00;;;3.33;nan
36980;BME280;22891;50.562;7.272;2023-03-03T16:33:33;101414.00;;;3.27;nan
36980;BME280;22891;50.562;7.272;2023-03-03T16:36:32;101425.00;;;3.17;nan
36980;BME280;22891;50.562;7.272;2023-03-03T16:39:14;101413.00;;;2.95;nan
36980;BME280;22891;50.562;7.272;2023-03-03T16:42:32;101429.00;;;2.83;nan
36980;BME280;22891;50.562;7.272;2023-03-03T16:45:43;101422.00;;;2.85;nan
36980;BME280;22891;50.562;7.272;2023-03-03T16:48:20;101417.00;;;2.63;nan
36980;BME280;22891;50.562;7.272;2023-03-03T16:52:27;101405.00;;;2.44;nan
36980;BME280;22891;50.562;7.272;2023-03-03T16:55:15;101386.00;;;2.42;nan
36980;BME280;22891;50.562;7.272;2023-03-03T17:04:01;101394.00;;;2.60;nan
36980;BME280;22891;50.562;7.272;2023-03-03T17:19:18;101330.00;;;1.99;nan
36980;BME280;22891;50.562;7.272;2023-03-03T17:22:13;101326.00;;;1.96;nan
36980;BME280;22891;50.562;7.272;2023-03-03T17:30:25;101317.00;;;1.85;nan
36980;BME280;22891;50.562;7.272;2023-03-03T17:33:09;101308.00;;;1.76;nan
36980;BME280;22891;50.562;7.272;2023-03-03T17:36:01;101315.00;;;1.77;nan
36980;BME280;22891;50.562;7.272;2023-03-03T17:38:57;101307.00;;;1.64;nan
36980;BME280;22891;50.562;7.272;2023-03-03T17:46:45;101284.00;;;1.71;nan
36980;BME280;22891;50.562;7.272;2023-03-03T17:51:01;101287.00;;;1.79;nan
36980;BME280;22891;50.562;7.272;2023-03-03T17:54:06;101278.00;;;1.74;nan